createdAt,value
2017-06-25T00:02:25.891Z,52.80
2017-06-25T00:04:54.160Z,52.70
2017-06-25T00:07:22.468Z,53.10
2017-06-25T00:09:51.519Z,53.50
2017-06-25T00:12:19.795Z,53.30
2017-06-25T00:14:48.081Z,53.40
2017-06-25T00:17:16.356Z,54.40
2017-06-25T00:19:44.632Z,54.30
2017-06-25T00:22:12.947Z,54.70
2017-06-25T00:24:41.984Z,55.10
2017-06-25T00:27:10.248Z,55.00
2017-06-25T00:29:38.560Z,54.90
2017-06-25T00:32:06.832Z,55.00
2017-06-25T00:34:35.103Z,54.80
2017-06-25T00:37:03.423Z,54.60
2017-06-25T00:39:31.695Z,54.90
2017-06-25T00:42:00.731Z,55.10
2017-06-25T00:44:29.147Z,55.10
2017-06-25T00:46:58.192Z,55.70
2017-06-25T00:49:26.464Z,55.70
2017-06-25T00:51:54.783Z,55.50
2017-06-25T00:54:39.863Z,56.00
2017-06-25T00:57:08.231Z,56.50
2017-06-25T00:59:36.508Z,56.50
2017-06-25T01:02:04.781Z,56.60
2017-06-25T01:04:33.867Z,56.90
2017-06-25T01:07:02.904Z,57.00
2017-06-25T01:09:31.180Z,57.00
2017-06-25T01:11:59.483Z,56.80
2017-06-25T01:14:27.763Z,57.60
2017-06-25T01:16:56.040Z,57.40
2017-06-25T01:19:24.343Z,57.70
2017-06-25T01:21:53.379Z,57.00
2017-06-25T01:24:21.660Z,57.00
2017-06-25T01:26:49.975Z,56.70
2017-06-25T01:29:18.244Z,57.20
2017-06-25T01:31:46.512Z,56.70
2017-06-25T01:34:14.928Z,56.60
2017-06-25T01:36:43.964Z,57.00
2017-06-25T01:39:12.232Z,57.00
2017-06-25T01:41:40.532Z,57.00
2017-06-25T01:44:09.571Z,57.90
2017-06-25T01:46:37.835Z,57.90
2017-06-25T01:49:06.136Z,58.30
2017-06-25T01:51:35.176Z,56.90
2017-06-25T01:54:03.452Z,56.70
2017-06-25T01:56:31.757Z,57.80
2017-06-25T01:59:00.033Z,57.80
2017-06-25T02:01:28.292Z,57.60
2017-06-25T02:03:56.596Z,57.80
2017-06-25T02:06:24.864Z,57.70
2017-06-25T02:08:53.138Z,57.20
2017-06-25T02:11:21.465Z,57.00
2017-06-25T02:13:49.759Z,56.40
2017-06-25T02:16:18.027Z,56.90
2017-06-25T02:18:47.104Z,57.00
2017-06-25T02:21:16.154Z,56.10
2017-06-25T02:23:44.420Z,56.00
2017-06-25T02:26:12.733Z,56.10
2017-06-25T02:28:41.000Z,56.30
2017-06-25T02:31:09.316Z,55.80
2017-06-25T02:33:37.620Z,56.40
2017-06-25T02:36:05.892Z,56.60
2017-06-25T02:38:34.160Z,57.10
2017-06-25T02:41:02.584Z,56.60
2017-06-25T02:43:31.607Z,56.20
2017-06-25T02:45:59.880Z,56.10
2017-06-25T02:48:28.980Z,56.80
2017-06-25T02:50:57.256Z,57.10
2017-06-25T02:53:25.528Z,56.10
2017-06-25T02:55:54.730Z,56.90
2017-06-25T02:58:23.004Z,56.80
2017-06-25T03:00:51.287Z,56.90
2017-06-25T03:03:19.589Z,57.40
2017-06-25T03:05:48.644Z,58.10
2017-06-25T03:08:16.925Z,58.10
2017-06-25T03:10:45.232Z,58.70
2017-06-25T03:13:13.504Z,58.70
2017-06-25T03:15:41.784Z,58.70
2017-06-25T03:18:10.096Z,58.70
2017-06-25T03:20:38.399Z,58.80
2017-06-25T03:23:06.675Z,58.80
2017-06-25T03:25:34.992Z,58.10
2017-06-25T03:28:03.265Z,57.80
2017-06-25T03:30:31.540Z,58.40
2017-06-25T03:32:59.949Z,58.30
2017-06-25T03:35:28.992Z,59.00
2017-06-25T03:37:57.260Z,58.90
2017-06-25T03:40:25.564Z,58.50
2017-06-25T03:42:53.868Z,58.20
2017-06-25T03:45:23.763Z,58.30
2017-06-25T03:47:52.073Z,58.10
2017-06-25T03:50:21.119Z,58.20
2017-06-25T03:52:49.397Z,57.90
2017-06-25T03:55:17.696Z,57.50
2017-06-25T03:57:45.996Z,57.30
2017-06-25T04:00:14.264Z,57.60
2017-06-25T04:02:42.685Z,56.90
2017-06-25T04:05:10.961Z,56.50
2017-06-25T04:07:39.240Z,56.50
2017-06-25T04:10:07.541Z,56.30
2017-06-25T04:12:35.812Z,56.40
2017-06-25T04:15:04.848Z,56.30
2017-06-25T04:17:33.166Z,56.30
2017-06-25T04:20:01.443Z,56.40
2017-06-25T04:22:29.717Z,57.00
2017-06-25T04:24:58.020Z,56.80
2017-06-25T04:27:26.288Z,56.70
2017-06-25T04:29:55.335Z,57.90
2017-06-25T04:32:23.644Z,57.90
2017-06-25T04:34:52.685Z,56.90
2017-06-25T04:37:20.961Z,56.80
2017-06-25T04:39:49.297Z,56.60
2017-06-25T04:42:17.566Z,57.20
2017-06-25T04:44:45.833Z,56.60
2017-06-25T04:47:14.135Z,57.20
2017-06-25T04:49:42.420Z,57.00
2017-06-25T04:52:10.692Z,55.90
2017-06-25T04:54:38.991Z,56.50
2017-06-25T04:57:07.268Z,56.40
2017-06-25T04:59:35.525Z,56.30
2017-06-25T05:02:04.713Z,56.40
2017-06-25T05:04:33.749Z,55.50
2017-06-25T05:07:02.024Z,55.40
2017-06-25T05:09:30.336Z,55.80
2017-06-25T05:11:58.617Z,55.80
2017-06-25T05:14:26.884Z,55.30
2017-06-25T05:16:55.231Z,55.60
2017-06-25T05:19:23.508Z,55.60
2017-06-25T05:21:51.771Z,55.90
2017-06-25T05:24:20.077Z,54.20
2017-06-25T05:26:48.344Z,55.20
2017-06-25T05:29:17.382Z,54.20
2017-06-25T05:31:45.781Z,54.10
2017-06-25T05:34:14.812Z,53.90
2017-06-25T05:36:43.086Z,54.00
2017-06-25T05:39:11.392Z,54.00
2017-06-25T05:41:40.438Z,54.80
2017-06-25T05:44:08.715Z,54.80
2017-06-25T05:46:37.195Z,54.00
2017-06-25T05:49:06.237Z,54.40
2017-06-25T05:51:34.507Z,54.30
2017-06-25T05:54:02.812Z,54.30
2017-06-25T05:56:31.087Z,54.40
2017-06-25T05:58:59.360Z,54.20
2017-06-25T06:01:27.784Z,53.70
2017-06-25T06:03:56.828Z,53.40
2017-06-25T06:06:25.088Z,53.30
2017-06-25T06:08:53.388Z,53.30
2017-06-25T06:11:22.432Z,53.50
2017-06-25T06:13:50.705Z,53.30
2017-06-25T06:16:19.155Z,53.50
2017-06-25T06:18:47.440Z,53.60
2017-06-25T06:21:15.708Z,52.20
2017-06-25T06:23:44.788Z,53.00
2017-06-25T06:26:13.067Z,52.40
2017-06-25T06:28:42.095Z,53.10
2017-06-25T06:31:10.408Z,53.00
2017-06-25T06:33:39.443Z,50.40
2017-06-25T06:36:07.716Z,50.40
2017-06-25T06:38:36.044Z,50.80
2017-06-25T06:41:04.322Z,48.30
2017-06-25T06:43:32.596Z,47.60
2017-06-25T06:46:02.112Z,46.80
2017-06-25T06:48:30.384Z,47.30
2017-06-25T06:50:58.660Z,47.20
2017-06-25T06:53:27.098Z,46.80
2017-06-25T06:55:56.138Z,46.10
2017-06-25T06:58:24.412Z,45.90
2017-06-25T07:00:52.897Z,44.50
2017-06-25T07:03:21.943Z,44.60
2017-06-25T07:05:50.231Z,44.50
2017-06-25T07:08:18.548Z,44.80
2017-06-25T07:10:46.824Z,43.90
2017-06-25T07:13:15.092Z,45.40
2017-06-25T07:15:43.399Z,44.40
2017-06-25T07:18:12.435Z,43.10
2017-06-25T07:20:40.704Z,43.00
2017-06-25T07:23:09.188Z,42.90
2017-06-25T07:26:22.029Z,42.70
2017-06-25T07:28:53.853Z,43.20
2017-06-25T07:31:25.506Z,43.20
2017-06-25T07:33:54.949Z,43.00
2017-06-25T07:36:23.894Z,43.00
2017-06-25T07:38:52.831Z,43.10
2017-06-25T07:41:21.415Z,43.80
2017-06-25T07:43:49.864Z,43.20
2017-06-25T07:46:18.241Z,43.80
2017-06-25T07:48:46.672Z,42.90
2017-06-25T07:51:15.086Z,43.40
2017-06-25T07:53:43.557Z,43.40
2017-06-25T07:56:13.572Z,43.40
2017-06-25T07:58:42.376Z,42.60
2017-06-25T08:01:10.897Z,43.30
2017-06-25T08:03:39.489Z,43.10
2017-06-25T08:06:07.881Z,42.50
2017-06-25T08:08:37.109Z,42.30
2017-06-25T08:11:05.604Z,42.20
2017-06-25T08:13:36.266Z,42.90
2017-06-25T08:16:04.641Z,43.50
2017-06-25T08:18:32.998Z,42.60
2017-06-25T08:21:01.961Z,42.10
2017-06-25T08:23:30.402Z,41.80
2017-06-25T08:25:58.760Z,42.70
2017-06-25T08:28:28.094Z,42.00
2017-06-25T08:30:57.442Z,41.30
2017-06-25T08:33:26.589Z,41.40
2017-06-25T08:35:56.444Z,41.80
2017-06-25T08:38:25.496Z,41.20
2017-06-25T08:40:53.862Z,40.80
2017-06-25T08:43:22.235Z,40.00
2017-06-25T08:45:51.531Z,39.60
2017-06-25T08:48:20.791Z,38.50
2017-06-25T08:50:49.897Z,39.10
2017-06-25T08:53:21.066Z,38.60
2017-06-25T08:55:49.780Z,38.60
2017-06-25T08:58:18.294Z,38.50
2017-06-25T09:00:46.805Z,38.50
2017-06-25T09:03:16.103Z,38.90
2017-06-25T09:05:48.232Z,38.90
2017-06-25T09:08:16.628Z,39.00
2017-06-25T09:10:45.033Z,38.00
2017-06-25T09:13:13.442Z,37.80
2017-06-25T09:15:41.782Z,37.10
2017-06-25T09:18:13.603Z,37.10
2017-06-25T09:20:42.908Z,35.20
2017-06-25T09:23:12.807Z,35.10
2017-06-25T09:25:41.977Z,36.80
2017-06-25T09:28:10.714Z,36.00
2017-06-25T09:30:40.890Z,36.40
2017-06-25T09:33:12.120Z,35.90
2017-06-25T09:35:52.054Z,35.30
2017-06-25T09:38:23.110Z,35.20
2017-06-25T09:41:08.228Z,34.30
2017-06-25T09:43:36.754Z,34.20
2017-06-25T09:46:05.190Z,34.40
2017-06-25T09:48:36.124Z,34.60
2017-06-25T09:51:12.816Z,35.20
2017-06-25T09:53:47.490Z,34.70
2017-06-25T09:56:17.693Z,35.10
2017-06-25T09:58:47.487Z,35.40
2017-06-25T10:01:18.879Z,36.70
2017-06-25T10:03:49.830Z,36.70
2017-06-25T10:06:22.441Z,34.70
2017-06-25T10:08:53.931Z,35.70
2017-06-25T10:11:24.339Z,35.70
2017-06-25T10:13:55.789Z,34.90
2017-06-25T10:16:26.297Z,33.80
2017-06-25T10:18:55.177Z,34.80
2017-06-25T10:21:24.374Z,35.20
2017-06-25T10:23:54.297Z,35.10
2017-06-25T10:26:23.723Z,33.60
2017-06-25T10:28:54.674Z,32.30
2017-06-25T10:31:24.077Z,33.40
2017-06-25T10:33:54.571Z,32.40
2017-06-25T10:36:24.341Z,32.40
2017-06-25T10:38:59.915Z,32.40
2017-06-25T10:41:29.695Z,31.30
2017-06-25T10:43:58.126Z,31.00
2017-06-25T10:46:27.796Z,32.80
2017-06-25T10:49:00.869Z,33.50
2017-06-25T10:51:30.364Z,30.70
2017-06-25T10:53:58.775Z,32.20
2017-06-25T10:56:27.217Z,33.20
2017-06-25T10:58:58.669Z,34.60
2017-06-25T11:04:16.567Z,32.20
2017-06-25T11:06:47.115Z,32.20
2017-06-25T11:09:15.925Z,31.10
2017-06-25T11:11:45.278Z,30.90
2017-06-25T11:14:13.619Z,31.60
2017-06-25T11:16:47.174Z,32.20
2017-06-25T11:19:17.141Z,29.80
2017-06-25T11:21:47.974Z,29.80
2017-06-25T11:24:16.353Z,30.70
2017-06-25T11:26:45.394Z,29.30
2017-06-25T11:29:14.007Z,30.00
2017-06-25T11:31:42.381Z,30.70
2017-06-25T11:34:10.771Z,31.10
2017-06-25T11:36:42.033Z,32.00
2017-06-25T11:39:12.834Z,31.90
2017-06-25T11:41:43.497Z,32.10
2017-06-25T11:44:14.451Z,32.10
2017-06-25T11:46:46.951Z,31.20
2017-06-25T11:49:15.397Z,32.90
2017-06-25T11:51:43.816Z,30.70
2017-06-25T11:54:14.047Z,30.10
2017-06-25T11:56:43.797Z,29.60
2017-06-25T11:59:17.257Z,28.70
2017-06-25T12:01:45.625Z,29.80
2017-06-25T12:04:21.121Z,29.90
2017-06-25T12:06:49.521Z,29.70
2017-06-25T12:09:19.732Z,30.50
2017-06-25T12:11:51.931Z,30.20
2017-06-25T12:14:20.655Z,30.20
2017-06-25T12:16:49.225Z,30.30
2017-06-25T12:19:18.551Z,31.00
2017-06-25T12:21:47.008Z,30.50
2017-06-25T12:24:15.398Z,30.00
2017-06-25T12:26:43.846Z,29.40
2017-06-25T12:29:12.277Z,29.30
2017-06-25T12:31:44.823Z,27.30
2017-06-25T12:34:13.886Z,27.20
2017-06-25T12:36:42.267Z,27.50
2017-06-25T12:39:10.633Z,27.20
2017-06-25T12:41:39.256Z,27.50
2017-06-25T12:44:08.686Z,28.70
2017-06-25T12:46:39.271Z,28.40
2017-06-25T12:49:07.852Z,29.10
2017-06-25T12:51:36.245Z,30.00
2017-06-25T12:54:04.680Z,29.60
2017-06-25T12:56:33.306Z,30.10
2017-06-25T12:59:01.870Z,30.30
2017-06-25T13:01:31.222Z,30.50
2017-06-25T13:04:00.792Z,30.40
2017-06-25T13:06:30.158Z,30.30
2017-06-25T13:08:58.516Z,30.40
2017-06-25T13:11:27.186Z,31.40
2017-06-25T13:13:56.602Z,32.90
2017-06-25T13:16:25.211Z,32.90
2017-06-25T13:18:54.514Z,33.80
2017-06-25T13:21:23.354Z,33.70
2017-06-25T13:23:51.902Z,33.70
2017-06-25T13:26:20.438Z,33.90
2017-06-25T13:28:48.956Z,34.20
2017-06-25T13:31:17.925Z,34.40
2017-06-25T13:33:47.150Z,34.80
2017-06-25T13:36:16.761Z,33.80
2017-06-25T13:38:45.295Z,35.00
2017-06-25T13:41:13.974Z,34.70
2017-06-25T13:43:42.441Z,35.00
2017-06-25T13:46:10.876Z,33.80
2017-06-25T13:48:39.420Z,33.50
2017-06-25T13:51:11.201Z,33.60
2017-06-25T13:53:40.244Z,34.40
2017-06-25T13:56:08.708Z,34.00
2017-06-25T13:58:37.462Z,33.30
2017-06-25T14:01:07.403Z,34.60
2017-06-25T14:03:37.511Z,33.90
2017-06-25T14:06:06.018Z,33.10
2017-06-25T14:08:35.234Z,32.60
2017-06-25T14:11:05.837Z,32.60
2017-06-25T14:13:35.522Z,33.10
2017-06-25T14:16:03.977Z,33.10
2017-06-25T14:18:34.771Z,33.80
2017-06-25T14:21:03.336Z,33.70
2017-06-25T14:23:31.792Z,32.80
2017-06-25T14:26:00.418Z,33.10
2017-06-25T14:28:28.866Z,33.90
2017-06-25T14:30:57.310Z,34.30
2017-06-25T14:33:26.577Z,34.40
2017-06-25T14:35:55.038Z,34.20
2017-06-25T14:38:25.266Z,32.20
2017-06-25T14:41:02.511Z,31.80
2017-06-25T14:43:31.293Z,31.00
2017-06-25T14:45:59.707Z,30.30
2017-06-25T14:48:29.419Z,30.50
2017-06-25T14:50:58.684Z,31.60
2017-06-25T14:53:27.078Z,31.60
2017-06-25T14:55:57.396Z,32.90
2017-06-25T14:58:26.765Z,33.10
2017-06-25T15:00:55.118Z,33.00
2017-06-25T15:03:26.727Z,33.60
2017-06-25T15:06:01.749Z,34.10
2017-06-25T15:08:31.365Z,34.00
2017-06-25T15:10:59.731Z,34.70
2017-06-25T15:13:29.128Z,34.20
2017-06-25T15:15:58.114Z,33.90
2017-06-25T15:18:28.998Z,33.30
2017-06-25T15:23:33.029Z,33.60
2017-06-25T15:26:05.572Z,34.20
2017-06-25T15:28:42.351Z,33.40
2017-06-25T15:31:11.784Z,33.70
2017-06-25T15:33:40.429Z,33.60
2017-06-25T15:36:08.778Z,33.30
2017-06-25T15:38:40.899Z,33.60
2017-06-25T15:41:09.531Z,34.00
2017-06-25T15:43:38.673Z,33.40
2017-06-25T15:46:07.785Z,33.30
2017-06-25T15:48:37.084Z,33.10
2017-06-25T15:51:05.789Z,33.00
2017-06-25T15:53:34.570Z,32.80
2017-06-25T15:56:03.180Z,33.10
2017-06-25T15:58:32.530Z,32.40
2017-06-25T16:01:01.358Z,32.70
2017-06-25T16:03:29.959Z,33.10
2017-06-25T16:05:59.208Z,33.80
2017-06-25T16:08:27.794Z,33.80
2017-06-25T16:10:56.888Z,34.50
2017-06-25T16:13:26.378Z,34.20
2017-06-25T16:15:55.868Z,35.60
2017-06-25T16:18:27.859Z,34.90
2017-06-25T16:20:56.309Z,35.10
2017-06-25T16:23:24.696Z,36.10
2017-06-25T16:25:53.068Z,36.00
2017-06-25T16:28:22.524Z,36.30
2017-06-25T16:30:54.152Z,37.40
2017-06-25T16:33:25.121Z,36.80
2017-06-25T16:35:56.249Z,37.50
2017-06-25T16:38:24.769Z,36.80
2017-06-25T16:40:56.149Z,37.60
2017-06-25T16:43:26.638Z,38.30
2017-06-25T16:45:59.997Z,38.10
2017-06-25T16:48:28.595Z,38.10
2017-06-25T16:53:35.457Z,38.10
2017-06-25T16:56:06.188Z,37.90
2017-06-25T16:58:35.836Z,39.10
2017-06-25T17:01:04.302Z,39.10
2017-06-25T17:03:33.509Z,39.10
2017-06-25T17:06:02.743Z,39.20
2017-06-25T17:08:31.878Z,39.30
2017-06-25T17:11:03.965Z,38.60
2017-06-25T17:13:34.733Z,38.70
2017-06-25T17:16:03.444Z,38.60
2017-06-25T17:18:32.297Z,37.60
2017-06-25T17:21:01.977Z,38.30
2017-06-25T17:23:30.561Z,38.60
2017-06-25T17:25:59.042Z,38.20
2017-06-25T17:28:27.639Z,39.00
2017-06-25T17:30:56.095Z,38.90
2017-06-25T17:33:24.498Z,38.80
2017-06-25T17:35:54.866Z,39.40
2017-06-25T17:38:24.513Z,39.70
2017-06-25T17:40:53.835Z,39.80
2017-06-25T17:43:22.618Z,40.10
2017-06-25T17:45:51.050Z,40.50
2017-06-25T17:48:19.521Z,40.30
2017-06-25T17:50:48.535Z,40.60
2017-06-25T17:53:16.999Z,40.80
2017-06-25T17:55:45.381Z,40.60
2017-06-25T17:58:14.398Z,41.20
2017-06-25T18:00:42.826Z,41.30
2017-06-25T18:03:11.377Z,41.80
2017-06-25T18:05:40.549Z,42.10
2017-06-25T18:08:09.787Z,42.60
2017-06-25T18:10:38.215Z,42.50
2017-06-25T18:13:06.917Z,42.70
2017-06-25T18:15:36.195Z,43.80
2017-06-25T18:18:05.334Z,42.40
2017-06-25T18:20:34.058Z,42.40
2017-06-25T18:23:03.364Z,42.60
2017-06-25T18:25:31.742Z,42.50
2017-06-25T18:28:01.154Z,42.10
2017-06-25T18:30:29.591Z,42.70
2017-06-25T18:32:57.985Z,42.10
2017-06-25T18:35:26.539Z,42.20
2017-06-25T18:37:55.502Z,42.70
2017-06-25T18:40:23.934Z,43.00
2017-06-25T18:42:52.556Z,42.00
2017-06-25T18:45:21.104Z,42.00
2017-06-25T18:47:50.402Z,42.80
2017-06-25T18:50:21.092Z,42.60
2017-06-25T18:52:50.232Z,42.60
2017-06-25T18:55:18.853Z,42.60
2017-06-25T18:57:47.384Z,42.70
2017-06-25T19:00:15.846Z,42.60
2017-06-25T19:02:47.896Z,43.00
2017-06-25T19:05:17.266Z,42.90
2017-06-25T19:07:46.479Z,43.70
2017-06-25T19:10:16.067Z,43.60
2017-06-25T19:12:44.779Z,43.90
2017-06-25T19:15:15.674Z,43.90
2017-06-25T19:17:46.170Z,43.90
2017-06-25T19:20:16.189Z,44.60
2017-06-25T19:22:47.367Z,44.40
2017-06-25T19:25:19.730Z,44.60
2017-06-25T19:27:52.019Z,44.60
2017-06-25T19:30:21.821Z,44.80
2017-06-25T19:32:51.718Z,44.80
2017-06-25T19:35:21.479Z,45.10
2017-06-25T19:37:51.652Z,45.10
2017-06-25T19:40:21.970Z,45.50
2017-06-25T19:42:50.780Z,46.10
2017-06-25T19:45:19.509Z,45.50
2017-06-25T19:47:49.638Z,45.90
2017-06-25T19:50:19.467Z,46.20
2017-06-25T19:52:51.122Z,46.30
2017-06-25T19:55:20.509Z,46.40
2017-06-25T19:57:50.418Z,46.30
2017-06-25T20:00:19.963Z,46.40
2017-06-25T20:02:48.937Z,46.30
2017-06-25T20:05:21.085Z,46.40
2017-06-25T20:07:52.284Z,46.30
2017-06-25T20:10:21.673Z,46.30
2017-06-25T20:12:52.809Z,46.30
2017-06-25T20:15:21.498Z,46.30
2017-06-25T20:17:50.694Z,46.30
2017-06-25T20:20:19.126Z,46.80
2017-06-25T20:22:49.233Z,47.50
2017-06-25T20:25:19.490Z,46.30
2017-06-25T20:27:47.970Z,46.30
2017-06-25T20:30:16.667Z,46.80
2017-06-25T20:32:45.125Z,47.60
2017-06-25T20:35:13.761Z,47.70
2017-06-25T20:37:42.414Z,47.00
2017-06-25T20:40:10.950Z,47.60
2017-06-25T20:42:39.932Z,47.70
2017-06-25T20:45:10.587Z,48.20
2017-06-25T20:47:39.181Z,47.70
2017-06-25T20:50:07.961Z,47.80
2017-06-25T20:52:37.031Z,47.70
2017-06-25T20:55:06.993Z,48.10
2017-06-25T20:57:36.097Z,48.10
2017-06-25T21:00:04.717Z,48.10
2017-06-25T21:02:33.338Z,48.30
2017-06-25T21:05:01.686Z,48.60
2017-06-25T21:07:30.735Z,48.10
2017-06-25T21:10:00.773Z,48.60
2017-06-25T21:12:30.165Z,48.10
2017-06-25T21:15:00.925Z,48.30
2017-06-25T21:17:30.387Z,48.70
2017-06-25T21:19:59.022Z,48.70
2017-06-25T21:22:27.694Z,48.80
2017-06-25T21:24:56.927Z,48.70
2017-06-25T21:27:25.558Z,48.60
2017-06-25T21:29:54.131Z,49.60
2017-06-25T21:32:22.819Z,48.70
2017-06-25T21:34:51.993Z,48.80
2017-06-25T21:37:20.561Z,49.10
2017-06-25T21:39:49.064Z,49.50
2017-06-25T21:42:18.237Z,49.70
2017-06-25T21:44:46.736Z,49.10
2017-06-25T21:47:15.135Z,49.40
2017-06-25T21:49:43.602Z,49.40
2017-06-25T21:52:12.171Z,49.30
2017-06-25T21:54:40.560Z,49.60
2017-06-25T21:57:09.002Z,49.90
2017-06-25T21:59:37.812Z,49.30
2017-06-25T22:02:07.052Z,49.90
2017-06-25T22:04:36.113Z,49.40
2017-06-25T22:07:05.345Z,49.50
2017-06-25T22:09:34.662Z,50.10
2017-06-25T22:12:03.189Z,49.50
2017-06-25T22:14:32.533Z,49.10
2017-06-25T22:17:01.005Z,49.30
2017-06-25T22:19:29.493Z,49.30
2017-06-25T22:21:58.357Z,49.80
2017-06-25T22:24:26.806Z,50.30
2017-06-25T22:27:01.229Z,49.40
2017-06-25T22:29:31.908Z,49.40
2017-06-25T22:32:01.450Z,49.70
2017-06-25T22:34:32.224Z,49.70
2017-06-25T22:37:01.641Z,50.00
2017-06-25T22:39:30.066Z,50.00
2017-06-25T22:41:58.774Z,50.40
2017-06-25T22:44:27.321Z,50.10
2017-06-25T22:46:55.753Z,50.10
2017-06-25T22:49:24.957Z,51.30
2017-06-25T22:51:54.138Z,50.70
2017-06-25T22:54:24.347Z,50.10
2017-06-25T22:56:52.907Z,50.60
2017-06-25T22:59:21.244Z,50.20
2017-06-25T23:01:49.532Z,50.40
2017-06-25T23:04:17.832Z,50.50
2017-06-25T23:06:46.912Z,51.20
2017-06-25T23:09:15.965Z,51.80
2017-06-25T23:11:44.248Z,51.70
2017-06-25T23:14:13.325Z,52.00
2017-06-25T23:16:41.611Z,52.00
2017-06-25T23:19:09.888Z,52.10
2017-06-25T23:21:38.204Z,52.20
2017-06-25T23:24:07.248Z,51.60
2017-06-25T23:26:35.535Z,51.50
2017-06-25T23:29:03.955Z,51.70
2017-06-25T23:31:32.243Z,51.70
2017-06-25T23:34:00.635Z,51.70
2017-06-25T23:36:29.719Z,51.90
2017-06-25T23:38:58.766Z,51.90
2017-06-25T23:41:27.044Z,51.80
2017-06-25T23:43:55.377Z,51.80
2017-06-25T23:46:23.660Z,52.30
2017-06-25T23:48:51.953Z,51.90
2017-06-25T23:51:21.020Z,52.70
2017-06-25T23:53:49.310Z,52.60
2017-06-25T23:56:18.353Z,52.20
2017-06-25T23:58:46.680Z,52.00
